Commit Graph

  • a5e8a5596c set unauthorized to 0 master Jørgen Sverre Lien Sellæg 2022-07-23 12:34:09 +0200
  • 5bedb9b1e9 run proxy and signal gateway on garbit Jørgen Sverre Lien Sellæg 2022-07-21 23:03:14 +0200
  • f0c536122b update scrape log formats Jørgen Sverre Lien Sellæg 2022-07-16 19:14:17 +0200
  • af67e99c6b a bit better msg Jørgen Sverre Lien Sellæg 2022-07-08 23:40:52 +0200
  • 3eeeeecc7d scrape hoopla complete? Jørgen Sverre Lien Sellæg 2022-07-08 23:24:46 +0200
  • a598bb1cdd add hoopla scraper Jørgen Sverre Lien Sellæg 2022-07-08 22:58:20 +0200
  • 87b54b571d remove stuff Jørgen Sverre Lien Sellæg 2022-07-08 22:28:58 +0200
  • 74262e4b93 update messages and some output Jørgen Sverre Lien Sellæg 2022-07-08 22:11:33 +0200
  • 5c31953875 lat Jørgen Sverre Lien Sellæg 2022-07-08 21:55:02 +0200
  • a0d4686c11 add update of scraper fix-broken-scrape Jørgen Sverre Lien Sellæg 2022-07-06 21:15:39 +0200
  • f3e2c47c07 update some thingksg Jørgen Sverre Lien Sellæg 2022-07-06 18:43:07 +0200
  • 107c960a28 add some more logging Jørgen Sverre Lien Sellæg 2022-07-06 18:29:12 +0200
  • 784e556be4 fix eslint Jørgen Sverre Lien Sellæg 2022-07-06 18:23:11 +0200
  • 99cb863ca2 update scraper Jørgen Sverre Lien Sellæg 2022-07-06 18:21:24 +0200
  • def202f3c6 change node version Jørgen Sverre Lien Sellæg 2022-07-06 16:41:30 +0200
  • 43f941f4a3 replace wrongly placed space Jørgen Sverre Lien Sellæg 2022-07-06 16:41:19 +0200
  • dd4c324546 write new scraper Jørgen Sverre Lien Sellæg 2022-07-06 16:06:05 +0200
  • b1b162e217 log status also Jørgen Sverre Lien Sellæg 2022-06-27 14:29:12 +0200
  • 8ce66c4adf stuff Jørgen Sverre Lien Sellæg 2022-06-27 13:14:04 +0200
  • b9d83cfcb3 prettier Jørgen Sverre Lien Sellæg 2022-06-27 13:12:54 +0200
  • aa389b7164 fix some faulty events Jørgen Sverre Lien Sellæg 2022-06-27 13:12:40 +0200
  • 7763b72cd7 prettier Jørgen Sverre Lien Sellæg 2022-06-27 13:12:16 +0200
  • 63b50ef28f speed stuff up Jørgen Sverre Lien Sellæg 2022-06-01 15:17:04 +0200
  • 4910a0a629 better message Jørgen Sverre Lien Sellæg 2022-05-09 15:52:04 +0200
  • 2ba411534b add more pages Jørgen Sverre Lien Sellæg 2022-05-05 16:42:45 +0200
  • 1c34194ed0 add retry Jørgen Sverre Lien Sellæg 2022-04-28 18:52:05 +0200
  • 301e31f291 update with signal message Jørgen Sverre Lien Sellæg 2022-04-28 17:38:35 +0200
  • d9d095f93a better handling of fetching places Jørgen Sverre Lien Sellæg 2022-04-26 12:53:31 +0200
  • c3a56fd871 update Jørgen Sverre Lien Sellæg 2022-04-24 19:15:34 +0200
  • ca5964a558 scrape reocurring events Jørgen Sverre Lien Sellæg 2022-04-23 17:15:44 +0200
  • 9be2ffa190 fix adapter Jørgen Sverre Lien Sellæg 2022-04-20 00:16:20 +0200
  • 8558969469 stuff Jørgen Sverre Lien Sellæg 2022-04-19 23:06:58 +0200
  • e498a7ef00 update deps Jørgen Sverre Lien Sellæg 2022-04-16 19:25:38 +0200
  • 02f4443592 add tools Jørgen Sverre Lien Sellæg 2022-04-16 19:24:40 +0200
  • 5701c5b8bf update scraper Jørgen Sverre Lien Sellæg 2022-04-16 19:24:29 +0200
  • 458090ce73 remove more stuff Jørgen Sverre Lien Sellæg 2022-03-20 20:07:32 +0100
  • 44ce372678 remove stuff Jørgen Sverre Lien Sellæg 2022-03-20 20:06:26 +0100
  • 0dd1ffbb9d cleanup some shit Jørgen Sverre Lien Sellæg 2022-03-20 19:13:41 +0100
  • 514b966920 print error json to std err Jørgen Sverre Lien Sellæg 2022-03-20 18:50:05 +0100
  • 034fb1b251 poor mans rotating proxy Jørgen Sverre Lien Sellæg 2022-03-20 18:49:34 +0100
  • fcf6ee1884 simplify Jørgen Sverre Lien Sellæg 2022-03-20 18:49:11 +0100
  • 7559e79d74 remove deleted file Jørgen Sverre Lien Sellæg 2022-03-20 18:48:53 +0100
  • 8c775b22d1 fix scraper Jørgen Sverre Lien Sellæg 2022-03-17 23:39:51 +0100
  • cf45709cbc sync up Jørgen Sverre Lien Sellæg 2022-03-17 20:14:45 +0100
  • fe10a6f42f revert this change2 Jørgen Sverre Lien Sellæg 2021-07-13 19:27:31 +0200
  • a7ec3fc529 add some loggin Jørgen Sverre Lien Sellæg 2021-07-13 18:58:18 +0200
  • 27279f6695 do not compare strictly Jørgen Sverre Lien Sellæg 2021-07-13 18:57:29 +0200
  • 12ebc1ec1e udpate endpoints Jørgen Sverre Lien Sellæg 2021-07-13 18:57:10 +0200
  • cf63839144 add scale to event Jørgen Sverre Lien Sellæg 2021-07-13 18:56:15 +0200
  • 88cf6aa56c filter away clutter Jørgen Sverre Lien Sellæg 2021-07-11 17:01:14 +0200
  • 1730c57b18 create script to genereate bash array for scrape daemon Jørgen Sverre Lien Sellæg 2021-07-11 16:55:26 +0200
  • 49fedae2c9 fix tyop Jørgen Sverre Lien Sellæg 2021-07-11 16:36:13 +0200
  • b04cdbe8ec create more tools to make my life easier Jørgen Sverre Lien Sellæg 2021-07-11 16:27:17 +0200
  • ff513a2d1c write some cli tools to agregate data easier Jørgen Sverre Lien Sellæg 2021-07-11 15:39:04 +0200
  • e7a3146d8e update Jørgen Sverre Lien Sellæg 2021-07-10 17:56:11 +0200
  • 00a24a97f7 add previous events to result if added Jørgen Sverre Lien Sellæg 2021-05-30 19:15:20 +0200
  • c6bd07d44c add working version of scraper with maldito powers Jørgen Sverre Lien Sellæg 2021-05-30 18:17:48 +0200
  • c323570674 use const Jørgen Sverre Lien Sellæg 2021-05-30 17:49:13 +0200
  • 7e410ce6d9 add output and input Jørgen Sverre Lien Sellæg 2021-05-30 17:28:31 +0200
  • df442695fc omit some fields from result Jørgen Sverre Lien Sellæg 2021-05-30 16:25:07 +0200
  • b839883dcd new scraper for raw facebook events Jørgen Sverre Lien Sellæg 2021-05-30 15:46:04 +0200
  • ff9cb4b997 do not map to event here Jørgen Sverre Lien Sellæg 2021-05-30 15:33:40 +0200
  • 73aef6f6e9 add facebook page and facebook event endpoitns Jørgen Sverre Lien Sellæg 2021-05-30 15:32:12 +0200
  • 9ac0c0ddba move mapping functions out of try catch Jørgen Sverre Lien Sellæg 2021-05-30 14:30:43 +0200
  • a568ec9d39 sleep when and where you want Jørgen Sverre Lien Sellæg 2021-05-30 14:30:05 +0200
  • 0dba764837 add function to get event_location Jørgen Sverre Lien Sellæg 2021-05-30 14:25:20 +0200
  • 113a9c7d15 make the request even more generic Jørgen Sverre Lien Sellæg 2021-05-30 14:16:18 +0200
  • 2641008889 parse updated date as well Jørgen Sverre Lien Sellæg 2021-05-29 15:34:00 +0200
  • 987f69f3f7 refactor fetching of events to make use of the initial request Jørgen Sverre Lien Sellæg 2021-05-29 15:32:12 +0200
  • 6aa95a9de0 correct pst events id Jørgen Sverre Lien Sellæg 2021-05-29 14:10:00 +0200
  • f9308a96b6 remove print of upcoming event while parsing Jørgen Sverre Lien Sellæg 2021-05-29 14:01:46 +0200
  • 3350d00f8c add updated time cause I see why the fuck not Jørgen Sverre Lien Sellæg 2021-05-29 13:59:27 +0200
  • 7cf4b1d8d0 update start date Jørgen Sverre Lien Sellæg 2021-05-29 13:57:55 +0200
  • 32251ca2ad make fetching events more generic Jørgen Sverre Lien Sellæg 2021-05-29 13:32:14 +0200
  • 48e79e6c2e working scrape based on directly on facebooks internal api Jørgen Sverre Lien Sellæg 2021-05-29 13:01:37 +0200
  • bfc558520d fix some weird respones Jørgen Sverre Lien Sellæg 2021-05-29 11:12:02 +0200
  • 8183304129 start approach for scraping events with fetch Jørgen Sverre Lien Sellæg 2021-05-23 15:41:37 +0200
  • 8c2b1b64cb tiny cleanup Jørgen Lien Sellæg 2020-11-09 23:15:05 +0100
  • 1365be4d0d add output parameter Jørgen Lien Sellæg 2020-11-09 23:13:01 +0100
  • d0891e66f2 add license Jørgen Lien Sellæg 2020-11-08 20:46:13 +0100
  • f65f244f20 Add LICENSE Jørgen Lien Sellæg 2020-11-08 19:45:39 +0000
  • 3690872e47 update docs Jørgen Lien Sellæg 2020-11-08 20:37:08 +0100
  • d625e3961b move scrape to bin directory Jørgen Lien Sellæg 2020-11-08 20:35:39 +0100
  • be7119166a add dockerignore and update docs Jørgen Lien Sellæg 2020-11-08 20:21:30 +0100
  • 1fcd8a505a use new command path and set env in one image Jørgen Lien Sellæg 2020-11-08 20:02:29 +0100
  • 84bb775b33 remove -p option and rename scrape.sh to scrape Jørgen Lien Sellæg 2020-11-08 20:01:04 +0100
  • 72ed575859 small cleanup Jørgen Lien Sellæg 2020-11-08 02:27:55 +0100
  • 181fa5976c use array format for pathor Jørgen Lien Sellæg 2020-11-08 02:26:31 +0100
  • 9a5a7b42bb flatten data scraped a bit Jørgen Lien Sellæg 2020-11-08 02:23:51 +0100
  • 8bd1075285 move function to browse file Jørgen Lien Sellæg 2020-11-08 02:20:01 +0100
  • 85ac020eb4 add example for how to scrape past events only Jørgen Lien Sellæg 2020-11-08 02:19:46 +0100
  • 3c425a5ac6 getting fairly clean now Jørgen Lien Sellæg 2020-11-08 02:11:45 +0100
  • df59427fbc sort of crash free now Jørgen Lien Sellæg 2020-11-08 02:05:34 +0100
  • e135513945 remove irrelevant tests Jørgen Lien Sellæg 2020-11-08 01:56:57 +0100
  • c9f2aed104 remove mulitple pages support Jørgen Lien Sellæg 2020-11-08 01:56:42 +0100
  • aa47f654fa move sort to own file Jørgen Lien Sellæg 2020-11-08 01:45:36 +0100
  • 2303734bc1 move mapping of date to logic Jørgen Lien Sellæg 2020-11-08 01:41:25 +0100
  • c834244bef rename function Jørgen Lien Sellæg 2020-11-08 01:38:14 +0100
  • 9137a01158 give a better name to merge function Jørgen Lien Sellæg 2020-11-08 01:36:23 +0100
  • fe6d6054bf seperate browse code into own file Jørgen Lien Sellæg 2020-11-08 01:29:30 +0100